Time;durP1;ratioP1;P1;durP2;ratioP2;P2;SDS_P1;SDS_P2;PMS_P1;PMS_P2;Temp;Humidity;BMP_temperature;BMP_pressure;BME280_temperature;BME280_humidity;BME280_pressure;Samples;Min_cycle;Max_cycle;Signal;HPM_P1;HPM_P2
2022/06/21 00:01:12;;;;;;;9.40;8.47;;;;;;;11.38;94.11;101396.38;5014345;28;20436;-49
2022/06/21 00:03:40;;;;;;;11.83;8.47;;;;;;;11.37;93.84;101396.59;5014260;28;20469;-48
2022/06/21 00:06:10;;;;;;;12.53;9.57;;;;;;;11.36;93.74;101397.59;5014203;28;20488;-47
2022/06/21 00:08:38;;;;;;;15.40;9.67;;;;;;;11.34;93.69;101392.44;5013059;28;20544;-44
2022/06/21 00:11:17;;;;;;;14.77;9.47;;;;;;;11.33;93.30;101392.63;5014186;28;20432;-47
2022/06/21 00:13:45;;;;;;;10.20;9.30;;;;;;;11.34;92.28;101388.94;5014214;28;20436;-48
2022/06/21 00:16:16;;;;;;;11.23;8.70;;;;;;;11.35;91.78;101383.41;5013897;28;20464;-45
2022/06/21 00:18:46;;;;;;;11.77;9.23;;;;;;;11.34;91.61;101392.44;5013522;28;20461;-46
2022/06/21 00:21:15;;;;;;;9.70;8.70;;;;;;;11.34;92.23;101399.63;5014135;28;20444;-48
2022/06/21 00:23:43;;;;;;;9.63;8.70;;;;;;;11.30;92.25;101401.84;5013953;28;20483;-46
2022/06/21 00:26:12;;;;;;;10.87;9.77;;;;;;;11.29;91.63;101397.50;5013850;28;20449;-46
2022/06/21 00:28:40;;;;;;;11.77;8.70;;;;;;;11.29;91.76;101399.38;5013390;28;20830;-45
2022/06/21 00:31:17;;;;;;;13.60;9.23;;;;;;;11.26;91.82;101400.53;5012274;28;20439;-48
2022/06/21 00:33:45;;;;;;;12.33;9.97;;;;;;;11.22;91.73;101403.78;5003985;28;20438;-44
2022/06/21 00:36:21;;;;;;;16.40;9.20;;;;;;;11.20;91.35;101395.94;5013753;28;20454;-49
2022/06/21 00:38:50;;;;;;;15.73;9.80;;;;;;;11.21;91.24;101410.13;5013236;28;20468;-44
2022/06/21 00:41:20;;;;;;;10.93;9.47;;;;;;;11.23;90.23;101400.09;5013310;28;20440;-47
2022/06/21 00:43:51;;;;;;;12.63;10.70;;;;;;;11.25;89.72;101401.56;5013760;28;20473;-50
2022/06/21 00:46:31;;;;;;;9.50;8.60;;;;;;;11.27;89.22;101406.72;5013654;28;20453;-46
2022/06/21 00:49:01;;;;;;;14.00;10.53;;;;;;;11.28;89.29;101397.69;5013094;28;20468;-44
2022/06/21 00:51:39;;;;;;;11.23;9.67;;;;;;;11.29;89.04;101396.69;5013271;28;20425;-46
2022/06/21 00:54:16;;;;;;;21.00;9.93;;;;;;;11.29;88.95;101394.84;5013716;28;20428;-50
2022/06/21 00:56:51;;;;;;;10.30;9.37;;;;;;;11.26;89.73;101392.53;5013395;28;20794;-44
2022/06/21 00:59:22;;;;;;;14.80;9.73;;;;;;;11.25;89.33;101403.41;5012854;28;20464;-48
2022/06/21 01:01:54;;;;;;;16.40;9.50;;;;;;;11.25;88.91;101400.75;5012979;28;20974;-46
2022/06/21 01:04:29;;;;;;;12.83;9.57;;;;;;;11.25;88.44;101401.56;5013096;28;20476;-47
2022/06/21 01:07:01;;;;;;;15.80;9.70;;;;;;;11.28;87.61;101392.34;5013141;28;20970;-45
2022/06/21 01:09:33;;;;;;;15.83;10.30;;;;;;;11.29;87.21;101388.69;5012983;28;20430;-48
2022/06/21 01:12:04;;;;;;;13.43;9.80;;;;;;;11.31;87.19;101389.31;5012996;28;20444;-47
2022/06/21 01:14:36;;;;;;;13.80;9.30;;;;;;;11.32;86.85;101399.81;5013117;28;20537;-45
2022/06/21 01:17:06;;;;;;;16.07;9.83;;;;;;;11.34;86.54;101394.28;5012364;28;20527;-44
2022/06/21 01:19:38;;;;;;;11.20;10.03;;;;;;;11.33;86.46;101401.47;5013108;28;20435;-44
2022/06/21 01:22:17;;;;;;;10.10;8.70;;;;;;;11.34;86.74;101399.63;5012766;28;20470;-46
2022/06/21 01:24:56;;;;;;;13.10;9.47;;;;;;;11.36;86.09;101389.59;5012831;28;20477;-45
2022/06/21 01:27:26;;;;;;;10.83;9.80;;;;;;;11.35;86.27;101383.41;5012210;28;20475;-45
2022/06/21 01:29:54;;;;;;;20.30;11.07;;;;;;;11.36;85.88;101381.56;5012854;28;20437;-48
2022/06/21 01:32:21;;;;;;;17.00;10.23;;;;;;;11.35;86.24;101386.09;5007955;28;20436;-44
2022/06/21 01:34:50;;;;;;;12.97;10.60;;;;;;;11.35;86.23;101386.09;5004566;28;20475;-47
2022/06/21 01:37:24;;;;;;;21.27;10.83;;;;;;;11.35;85.91;101385.28;5012090;28;20453;-48
2022/06/21 01:39:56;;;;;;;17.03;10.40;;;;;;;11.35;85.96;101386.09;5012578;28;20778;-46
2022/06/21 01:42:30;;;;;;;21.20;11.47;;;;;;;11.34;85.87;101384.44;5012644;28;20780;-47
2022/06/21 01:45:04;;;;;;;16.37;10.17;;;;;;;11.34;85.71;101388.94;5012459;28;20475;-45
2022/06/21 01:47:40;;;;;;;16.43;10.80;;;;;;;11.32;85.88;101380.31;5011807;28;20974;-46
2022/06/21 01:50:10;;;;;;;15.77;10.47;;;;;;;11.30;86.17;101388.50;5012340;28;20523;-46
2022/06/21 01:52:43;;;;;;;15.77;10.97;;;;;;;11.31;85.11;101389.31;5012347;28;20441;-51
2022/06/21 01:55:17;;;;;;;14.20;10.20;;;;;;;11.30;84.31;101393.00;5012600;28;20425;-46
2022/06/21 01:57:47;;;;;;;16.20;11.00;;;;;;;11.31;84.30;101387.50;5011909;28;20470;-47
2022/06/21 02:00:15;;;;;;;20.57;11.03;;;;;;;11.32;84.18;101383.78;5012019;28;20433;-45
2022/06/21 02:02:46;;;;;;;22.33;10.37;;;;;;;11.32;84.15;101382.97;5012097;28;20443;-49
2022/06/21 02:05:18;;;;;;;18.13;10.70;;;;;;;11.27;85.58;101383.53;5012427;28;20846;-51
2022/06/21 02:07:49;;;;;;;15.87;11.27;;;;;;;11.27;84.95;101385.34;5011762;28;20460;-48
2022/06/21 02:10:26;;;;;;;18.70;10.30;;;;;;;11.27;84.12;101388.03;5012096;28;20448;-45
2022/06/21 02:13:02;;;;;;;20.87;11.17;;;;;;;11.25;84.65;101390.91;5012140;28;20440;-46
2022/06/21 02:15:36;;;;;;;14.67;10.50;;;;;;;11.24;84.08;101394.56;5012009;28;20428;-46
2022/06/21 02:18:09;;;;;;;16.30;10.07;;;;;;;11.24;83.83;101389.22;5011785;28;20460;-45
2022/06/21 02:20:42;;;;;;;14.90;10.47;;;;;;;11.23;84.28;101390.22;5012010;28;20425;-45
2022/06/21 02:23:13;;;;;;;20.13;11.40;;;;;;;11.23;83.92;101389.44;5012078;28;20921;-45
2022/06/21 02:25:42;;;;;;;10.30;9.50;;;;;;;11.23;82.96;101387.56;4994683;28;20509;-46
2022/06/21 02:28:18;;;;;;;13.10;9.80;;;;;;;11.25;83.24;101384.72;5011655;28;20461;-48
2022/06/21 02:30:48;;;;;;;17.00;9.97;;;;;;;11.25;83.05;101380.22;5011813;28;20465;-47
2022/06/21 02:33:19;;;;;;;16.57;10.00;;;;;;;11.27;82.86;101385.34;5006221;28;21005;-44
2022/06/21 02:35:51;;;;;;;26.03;10.50;;;;;;;11.29;82.42;101378.00;5008710;28;20461;-47
2022/06/21 02:38:22;;;;;;;15.10;10.67;;;;;;;11.27;82.97;101383.53;5018024;28;20461;-48
2022/06/21 02:40:57;;;;;;;16.17;9.77;;;;;;;11.30;82.12;101393.00;5018175;28;20425;-44
2022/06/21 02:43:31;;;;;;;19.77;9.47;;;;;;;11.31;82.16;101392.00;5018585;28;20440;-45
2022/06/21 02:46:04;;;;;;;18.27;9.90;;;;;;;11.32;81.91;101391.00;5018269;28;20487;-49
2022/06/21 02:48:39;;;;;;;17.07;9.63;;;;;;;11.34;81.64;101389.78;5017805;28;20468;-46
2022/06/21 02:51:11;;;;;;;15.00;10.07;;;;;;;11.36;81.59;101389.59;5018315;28;20432;-46
2022/06/21 02:53:45;;;;;;;24.00;10.93;;;;;;;11.37;81.48;101381.41;5018220;28;20938;-49
2022/06/21 02:56:20;;;;;;;18.00;10.30;;;;;;;11.40;81.03;101382.88;5018309;28;20866;-47
2022/06/21 02:58:51;;;;;;;17.13;9.83;;;;;;;11.43;81.03;101388.66;5017648;28;20467;-46
2022/06/21 03:01:22;;;;;;;15.03;11.03;;;;;;;11.47;80.60;101389.94;5018164;28;20439;-44
2022/06/21 03:03:51;;;;;;;26.03;11.90;;;;;;;11.52;80.50;101381.38;5018364;28;20441;-48
2022/06/21 03:06:21;;;;;;;12.93;9.43;;;;;;;11.58;79.91;101388.66;5018195;28;20542;-49
2022/06/21 03:08:52;;;;;;;19.73;9.60;;;;;;;11.60;80.96;101384.75;5017640;28;20468;-44
2022/06/21 03:11:22;;;;;;;14.23;9.20;;;;;;;11.64;80.68;101390.56;5017961;28;20421;-47
2022/06/21 03:13:51;;;;;;;14.60;9.40;;;;;;;11.70;80.88;101392.53;5018232;28;20437;-50
2022/06/21 03:16:19;;;;;;;14.53;9.90;;;;;;;11.77;80.30;101398.75;5017882;28;20503;-45
2022/06/21 03:18:51;;;;;;;17.50;9.57;;;;;;;11.94;77.93;101402.03;5017380;28;21140;-43
2022/06/21 03:21:25;;;;;;;16.27;8.60;;;;;;;12.10;77.05;101402.59;5017727;28;20421;-48
2022/06/21 03:23:53;;;;;;;15.50;9.20;;;;;;;12.22;78.52;101402.91;5017964;28;20451;-44
2022/06/21 03:26:21;;;;;;;13.17;8.97;;;;;;;12.38;78.81;101404.50;5017845;28;20487;-49
2022/06/21 03:28:52;;;;;;;24.60;10.03;;;;;;;12.43;80.71;101412.78;5017295;28;21012;-49
2022/06/21 03:31:25;;;;;;;14.80;9.30;;;;;;;12.48;83.24;101408.53;5041861;23;20485;-45
2022/06/21 03:33:55;;;;;;;14.80;9.03;;;;;;;12.67;79.54;101405.19;5037205;28;20943;-46
2022/06/21 03:36:26;;;;;;;22.27;10.00;;;;;;;12.83;83.04;101414.78;5038796;28;20430;-48
2022/06/21 03:38:58;;;;;;;8.97;7.93;;;;;;;12.90;85.35;101406.78;5038336;28;20470;-45
2022/06/21 03:41:43;;;;;;;16.30;9.60;;;;;;;12.97;90.95;101407.66;5038603;28;20448;-48
2022/06/21 03:44:21;;;;;;;27.77;10.50;;;;;;;12.97;94.11;101402.28;5035622;28;20968;-47
2022/06/21 03:46:56;;;;;;;16.30;9.33;;;;;;;12.97;95.67;101399.63;5035200;28;20468;-45
2022/06/21 03:49:30;;;;;;;12.87;8.37;;;;;;;12.99;97.04;101398.41;5035040;28;20491;-47
2022/06/21 03:52:00;;;;;;;8.60;7.70;;;;;;;13.16;98.26;101398.97;5035410;28;20447;-49
2022/06/21 03:54:33;;;;;;;22.40;8.40;;;;;;;13.24;100.00;101396.94;5035360;28;20454;-46
2022/06/21 03:57:07;;;;;;;12.30;9.63;;;;;;;13.42;100.00;101401.78;5035255;28;20424;-46
2022/06/21 03:59:41;;;;;;;9.83;8.00;;;;;;;13.42;100.00;101404.44;5035117;28;20786;-47
2022/06/21 04:02:16;;;;;;;12.30;7.90;;;;;;;13.48;100.00;101411.69;5035057;28;20759;-46
2022/06/21 04:04:50;;;;;;;12.47;8.00;;;;;;;13.48;100.00;101417.06;5034938;28;20434;-46
2022/06/21 04:07:25;;;;;;;9.83;7.53;;;;;;;13.52;100.00;101417.47;5034481;28;20428;-45
2022/06/21 04:10:01;;;;;;;11.30;8.13;;;;;;;13.57;100.00;101423.06;5034790;28;20897;-47
2022/06/21 04:12:35;;;;;;;14.33;8.50;;;;;;;13.56;100.00;101422.22;5034608;28;20547;-47
2022/06/21 04:15:09;;;;;;;17.70;7.97;;;;;;;13.67;100.00;101431.56;5034947;28;20790;-44
2022/06/21 04:17:45;;;;;;;10.50;7.80;;;;;;;13.75;100.00;101432.22;5034030;28;20460;-48
2022/06/21 04:20:18;;;;;;;15.20;8.30;;;;;;;13.89;100.00;101429.59;5034206;28;20428;-44
2022/06/21 04:22:52;;;;;;;14.33;8.40;;;;;;;13.95;100.00;101428.78;5034870;28;20440;-46
2022/06/21 04:25:27;;;;;;;14.63;7.37;;;;;;;14.09;100.00;101438.53;5034630;28;20471;-45
2022/06/21 04:27:59;;;;;;;10.00;8.17;;;;;;;14.37;100.00;101442.72;5034136;28;20479;-47
2022/06/21 04:30:35;;;;;;;12.17;8.07;;;;;;;15.37;100.00;101434.41;5033910;28;20428;-44
2022/06/21 04:33:09;;;;;;;12.60;8.57;;;;;;;16.34;99.21;101439.53;5025817;28;20487;-48
2022/06/21 04:35:41;;;;;;;10.03;7.30;;;;;;;16.73;90.91;101434.94;5031811;28;20424;-44
2022/06/21 04:38:14;;;;;;;13.03;6.90;;;;;;;17.11;87.59;101443.72;5034247;28;20852;-45
2022/06/21 04:40:49;;;;;;;11.87;7.00;;;;;;;17.29;82.77;101446.44;5034316;28;20454;-46
2022/06/21 04:43:21;;;;;;;8.30;6.63;;;;;;;16.97;79.89;101440.31;5034810;28;20450;-44
2022/06/21 04:45:55;;;;;;;7.47;6.23;;;;;;;17.33;81.91;101439.53;5034590;28;20467;-45
2022/06/21 04:48:34;;;;;;;9.17;6.90;;;;;;;17.53;75.30;101436.63;5033905;28;20590;-46
2022/06/21 04:51:07;;;;;;;10.40;7.20;;;;;;;18.35;78.27;101437.84;5033871;28;20451;-47
2022/06/21 04:53:44;;;;;;;8.13;6.40;;;;;;;18.41;72.40;101440.44;5034107;28;20738;-47
2022/06/21 04:56:23;;;;;;;12.57;6.93;;;;;;;18.85;69.82;101438.28;5033816;28;20493;-47
2022/06/21 04:58:51;;;;;;;8.53;5.63;;;;;;;18.41;69.75;101443.13;5033806;28;20465;-44
2022/06/21 05:01:32;;;;;;;8.07;6.90;;;;;;;18.30;70.51;101451.22;5033742;28;20448;-47
2022/06/21 05:04:08;;;;;;;8.63;6.87;;;;;;;17.69;73.81;101453.06;5033773;28;20439;-44
2022/06/21 05:06:37;;;;;;;9.10;6.50;;;;;;;17.30;75.43;101460.72;5034071;28;20474;-46
2022/06/21 05:09:06;;;;;;;8.23;5.97;;;;;;;16.70;77.74;101456.91;5033249;28;20455;-45
2022/06/21 05:11:34;;;;;;;12.53;8.40;;;;;;;16.28;81.00;101461.94;5034077;28;20451;-45
2022/06/21 05:14:02;;;;;;;10.60;6.20;;;;;;;15.94;82.29;101463.19;5034953;28;20436;-45
2022/06/21 05:16:34;;;;;;;8.27;6.30;;;;;;;15.83;81.73;101466.53;5034067;28;20424;-48
2022/06/21 05:19:15;;;;;;;12.37;6.63;;;;;;;16.04;82.76;101468.91;5033557;28;20877;-47
2022/06/21 05:21:48;;;;;;;8.90;7.17;;;;;;;15.89;82.40;101464.84;5033544;28;20508;-45
2022/06/21 05:24:17;;;;;;;12.20;6.97;;;;;;;16.03;85.06;101469.13;5033695;28;20503;-46
2022/06/21 05:26:49;;;;;;;10.57;6.97;;;;;;;16.00;82.72;101480.31;5033102;28;20474;-46
2022/06/21 05:29:22;;;;;;;7.73;6.63;;;;;;;15.73;85.27;101482.31;5033134;28;20470;-44
2022/06/21 05:31:55;;;;;;;8.67;7.50;;;;;;;15.75;84.82;101482.06;5028007;28;20826;-45
2022/06/21 05:34:28;;;;;;;10.93;6.30;;;;;;;15.53;84.27;101486.09;5025301;28;20428;-44
2022/06/21 05:37:01;;;;;;;7.47;6.80;;;;;;;15.67;86.06;101477.78;5033606;28;20424;-45
2022/06/21 05:39:32;;;;;;;7.43;6.73;;;;;;;15.66;87.78;101484.19;5032931;28;20460;-46
2022/06/21 05:42:02;;;;;;;10.50;6.70;;;;;;;16.00;87.54;101483.03;5033040;28;20459;-47
2022/06/21 05:44:35;;;;;;;9.17;5.83;;;;;;;16.04;84.99;101479.66;5033658;28;20423;-48
2022/06/21 05:47:08;;;;;;;6.43;5.93;;;;;;;15.82;83.65;101469.44;5033226;28;21071;-46
2022/06/21 05:49:38;;;;;;;11.10;6.77;;;;;;;15.97;81.47;101476.19;5032729;28;20428;-49
2022/06/21 05:52:11;;;;;;;5.77;5.23;;;;;;;16.55;76.87;101465.31;5032976;28;20953;-46
2022/06/21 05:54:44;;;;;;;7.00;6.20;;;;;;;17.39;73.74;101473.69;5032919;28;20419;-45
2022/06/21 05:57:17;;;;;;;10.17;6.37;;;;;;;18.06;71.61;101463.81;5032553;28;20427;-45
2022/06/21 05:59:44;;;;;;;9.00;5.77;;;;;;;19.15;67.31;101463.34;5033130;28;20913;-47
2022/06/21 06:02:17;;;;;;;6.60;6.20;;;;;;;18.97;61.67;101466.97;5032478;28;20448;-45
2022/06/21 06:04:50;;;;;;;8.90;6.30;;;;;;;19.98;61.44;101457.59;5033027;28;20462;-47
2022/06/21 06:07:24;;;;;;;6.30;5.80;;;;;;;20.08;60.22;101458.59;5031932;28;20498;-43
2022/06/21 06:09:56;;;;;;;6.60;6.20;;;;;;;20.28;58.97;101460.91;5033022;28;20431;-45
2022/06/21 06:12:27;;;;;;;6.90;6.30;;;;;;;20.91;57.58;101463.31;5032706;28;21031;-44
2022/06/21 06:14:59;;;;;;;6.80;6.10;;;;;;;20.94;58.06;101468.25;5033021;28;20995;-45
2022/06/21 06:17:34;;;;;;;7.50;6.80;;;;;;;21.58;54.62;101468.66;5032538;28;20448;-44
2022/06/21 06:20:12;;;;;;;7.33;6.73;;;;;;;21.21;54.82;101473.84;5032994;28;20442;-45
2022/06/21 06:22:45;;;;;;;8.80;7.50;;;;;;;20.41;56.93;101483.09;5032820;28;20448;-44
2022/06/21 06:25:19;;;;;;;7.17;6.73;;;;;;;20.59;57.25;101476.63;5032604;28;20424;-44
2022/06/21 06:27:54;;;;;;;7.50;6.80;;;;;;;19.91;58.88;101473.13;5032028;28;20472;-43
2022/06/21 06:30:27;;;;;;;7.10;6.47;;;;;;;19.91;60.44;101479.38;5032388;28;20427;-46
2022/06/21 06:33:08;;;;;;;7.80;6.50;;;;;;;19.73;61.68;101493.06;5024829;28;20436;-48
2022/06/21 06:35:38;;;;;;;7.03;6.33;;;;;;;20.60;57.65;101482.88;5029642;28;20424;-45
2022/06/21 06:38:05;;;;;;;7.93;6.70;;;;;;;21.48;56.42;101488.34;5032295;28;20929;-47
2022/06/21 06:40:37;;;;;;;11.40;6.13;;;;;;;20.69;57.35;101486.81;5032366;28;20921;-44
2022/06/21 06:43:10;;;;;;;6.80;6.30;;;;;;;20.40;58.87;101489.56;5032557;28;20435;-45
2022/06/21 06:45:38;;;;;;;7.20;5.80;;;;;;;19.76;59.16;101488.00;5032803;28;20830;-46
2022/06/21 06:48:15;;;;;;;8.23;6.23;;;;;;;19.17;61.46;101508.03;5031909;28;20535;-46
2022/06/21 06:50:47;;;;;;;6.70;6.17;;;;;;;19.18;62.96;101512.38;5032426;28;20452;-48
2022/06/21 06:53:20;;;;;;;8.27;7.67;;;;;;;18.66;63.17;101510.53;5032455;28;20530;-48
2022/06/21 06:55:59;;;;;;;8.70;7.50;;;;;;;19.25;62.10;101504.16;5032365;28;20454;-50
2022/06/21 06:58:34;;;;;;;7.23;6.73;;;;;;;20.30;58.45;101510.22;5031854;28;20464;-46
2022/06/21 07:01:05;;;;;;;7.13;6.50;;;;;;;19.80;60.31;101508.09;5032321;28;20440;-46
2022/06/21 07:03:37;;;;;;;7.37;6.73;;;;;;;19.26;60.53;101508.50;5032398;28;20467;-46
2022/06/21 07:06:16;;;;;;;10.43;7.20;;;;;;;19.53;60.73;101506.19;5032425;28;20432;-47
2022/06/21 07:08:48;;;;;;;7.37;6.70;;;;;;;20.36;58.44;101506.56;5031346;28;20984;-45
2022/06/21 07:11:21;;;;;;;7.43;6.37;;;;;;;20.86;56.47;101498.50;5032272;28;20454;-46
2022/06/21 07:13:58;;;;;;;6.80;6.30;;;;;;;20.98;53.97;101494.63;5032325;28;20485;-50
2022/06/21 07:16:26;;;;;;;9.00;7.30;;;;;;;21.43;54.43;101502.66;5032162;28;20431;-46
2022/06/21 07:18:57;;;;;;;7.07;6.57;;;;;;;22.02;51.05;101500.19;5033231;28;20459;-49
2022/06/21 07:21:27;;;;;;;7.10;6.60;;;;;;;21.42;53.71;101498.31;5035244;28;20458;-47
2022/06/21 07:23:59;;;;;;;7.50;6.90;;;;;;;22.08;58.05;101498.34;5035375;28;20432;-47
2022/06/21 07:26:31;;;;;;;7.57;6.80;;;;;;;23.07;55.34;101500.44;5035453;28;20507;-45
2022/06/21 07:29:05;;;;;;;6.33;5.83;;;;;;;24.18;51.15;101497.53;5034508;28;20467;-45
2022/06/21 07:31:37;;;;;;;8.17;6.97;;;;;;;24.39;46.48;101491.03;5030042;28;20460;-48
2022/06/21 07:34:10;;;;;;;6.27;5.80;;;;;;;24.13;46.88;101498.31;5016429;28;20424;-47
2022/06/21 07:36:44;;;;;;;9.40;6.43;;;;;;;23.81;46.27;101502.25;5015823;28;20435;-48
2022/06/21 07:39:18;;;;;;;6.43;5.97;;;;;;;24.03;50.23;101498.25;5015082;28;20467;-47
2022/06/21 07:41:51;;;;;;;7.30;6.40;;;;;;;24.09;46.65;101510.00;5015065;28;20946;-44
2022/06/21 07:44:24;;;;;;;6.47;5.87;;;;;;;23.39;48.81;101507.75;5015322;28;20437;-46
2022/06/21 07:47:01;;;;;;;9.60;6.13;;;;;;;23.80;47.97;101498.72;5015448;28;20424;-46
2022/06/21 07:49:36;;;;;;;6.77;6.20;;;;;;;22.90;48.54;101494.34;5015378;28;20506;-46
2022/06/21 07:52:11;;;;;;;8.53;5.93;;;;;;;22.50;50.58;101499.34;5014721;28;20447;-45
2022/06/21 07:54:45;;;;;;;7.80;7.10;;;;;;;22.49;51.32;101497.75;5015097;28;20420;-48
2022/06/21 07:57:19;;;;;;;7.60;7.00;;;;;;;22.74;50.19;101503.44;5014687;28;20435;-48
2022/06/21 07:59:51;;;;;;;11.53;6.80;;;;;;;22.72;49.57;101507.50;5015047;28;20950;-48
2022/06/21 08:08:17;;;;;;;7.80;7.00;;;;;;;22.15;52.84;101504.44;5013650;28;20470;-46
2022/06/21 08:10:49;;;;;;;7.40;6.73;;;;;;;22.80;53.52;101509.72;5014297;28;20449;-47
2022/06/21 08:13:18;;;;;;;7.10;6.53;;;;;;;23.17;51.88;101496.16;5014407;28;20992;-50
2022/06/21 08:15:51;;;;;;;7.90;7.30;;;;;;;23.29;51.83;101494.88;5014529;28;20790;-49
2022/06/21 08:18:26;;;;;;;7.00;6.50;;;;;;;23.37;50.95;101497.09;5013909;28;20465;-46
2022/06/21 08:21:01;;;;;;;7.10;6.40;;;;;;;21.98;50.95;101501.81;5014212;28;20487;-45
2022/06/21 08:23:35;;;;;;;6.73;6.10;;;;;;;21.43;52.71;101493.72;5014484;28;20444;-47
2022/06/21 08:26:06;;;;;;;7.10;6.20;;;;;;;21.62;54.10;101496.97;5014521;28;20424;-48
2022/06/21 08:28:41;;;;;;;7.80;7.10;;;;;;;20.61;56.08;101489.94;5013904;28;20488;-44
2022/06/21 08:31:13;;;;;;;8.90;6.80;;;;;;;20.45;57.88;101491.56;5013403;28;20460;-47
2022/06/21 08:33:45;;;;;;;10.10;7.37;;;;;;;20.13;60.22;101488.47;5023567;28;21008;-45
2022/06/21 08:36:17;;;;;;;7.93;7.23;;;;;;;20.46;60.19;101505.94;5033924;28;20424;-46
2022/06/21 08:38:52;;;;;;;8.60;7.70;;;;;;;20.72;58.96;101503.41;5033793;28;20550;-47
2022/06/21 08:41:55;;;;;;;8.30;7.60;;;;;;;21.09;57.98;101503.78;5033726;28;20541;-46
2022/06/21 08:48:05;;;;;;;8.27;7.23;;;;;;;21.51;54.98;101496.81;5033212;28;20474;-49
2022/06/21 08:50:45;;;;;;;7.53;6.87;;;;;;;21.43;55.18;101494.53;5033638;28;20428;-49
2022/06/21 08:53:27;;;;;;;6.50;6.00;;;;;;;20.86;57.28;101487.66;5033718;28;20450;-49
2022/06/21 08:56:02;;;;;;;6.83;6.50;;;;;;;20.70;57.20;101477.59;5033814;28;20941;-46
2022/06/21 08:58:48;;;;;;;7.37;6.83;;;;;;;20.19;60.80;101478.56;5033555;28;20458;-46
2022/06/21 09:01:23;;;;;;;7.33;6.57;;;;;;;20.08;60.84;101484.84;5033445;28;20451;-45
2022/06/21 09:04:04;;;;;;;7.20;6.67;;;;;;;19.87;60.34;101479.03;5033796;28;20439;-48
2022/06/21 09:06:48;;;;;;;11.87;7.47;;;;;;;20.19;61.30;101497.53;5033995;28;20431;-46
2022/06/21 09:09:38;;;;;;;8.27;7.50;;;;;;;20.22;59.66;101492.44;5033118;28;21008;-44
2022/06/21 09:12:18;;;;;;;7.00;6.70;;;;;;;20.72;59.85;101484.44;5033469;28;20458;-48
2022/06/21 09:15:13;;;;;;;14.37;7.17;;;;;;;20.61;60.63;101484.53;5033430;28;20435;-45
2022/06/21 09:17:48;;;;;;;7.47;6.80;;;;;;;21.21;59.54;101492.81;5029599;28;20461;-48
2022/06/21 09:20:28;;;;;;;7.33;6.73;;;;;;;20.73;59.25;101491.50;5033419;28;20427;-47
2022/06/21 09:23:22;;;;;;;7.13;6.50;;;;;;;20.85;59.44;101491.41;5033568;28;20435;-46
2022/06/21 09:26:05;;;;;;;6.60;6.10;;;;;;;21.29;58.55;101498.69;5033507;28;20440;-46
2022/06/21 09:28:40;;;;;;;9.67;6.43;;;;;;;21.06;58.26;101501.53;5032632;28;20873;-44
2022/06/21 09:31:16;;;;;;;7.50;6.60;;;;;;;21.12;56.83;101502.44;5032659;28;21017;-47
2022/06/21 09:33:49;;;;;;;7.27;6.70;;;;;;;21.43;58.90;101505.38;5033242;28;20526;-47
2022/06/21 09:36:27;;;;;;;7.03;6.53;;;;;;;21.42;55.97;101506.44;5033016;28;20432;-47
2022/06/21 09:39:09;;;;;;;6.60;6.10;;;;;;;21.26;56.90;101512.75;5032770;28;20543;-47
2022/06/21 09:41:48;;;;;;;6.70;6.20;;;;;;;21.57;57.51;101510.44;5031879;28;20498;-44
2022/06/21 09:44:23;;;;;;;7.50;6.80;;;;;;;21.91;56.88;101504.69;5032978;28;20435;-48
2022/06/21 09:46:57;;;;;;;7.63;6.67;;;;;;;21.30;58.10;101508.44;5038575;23;20485;-48
2022/06/21 09:49:40;;;;;;;6.37;5.77;;;;;;;21.79;58.84;101503.97;5003619;28;20989;-47
2022/06/21 09:52:20;;;;;;;6.50;6.10;;;;;;;21.07;57.33;101513.19;5012536;28;20439;-44
2022/06/21 09:54:59;;;;;;;6.20;5.70;;;;;;;21.42;58.43;101511.88;5012680;28;20435;-44
2022/06/21 09:57:35;;;;;;;6.73;5.60;;;;;;;21.79;55.82;101505.84;5011868;28;20456;-44
2022/06/21 10:00:10;;;;;;;7.00;6.43;;;;;;;22.14;53.73;101510.91;5012443;28;20431;-46
2022/06/21 10:02:53;;;;;;;6.27;5.70;;;;;;;22.12;55.95;101507.66;5012349;28;20446;-43
2022/06/21 10:05:29;;;;;;;6.00;5.63;;;;;;;22.11;54.06;101517.69;5012439;28;20531;-46
2022/06/21 10:08:08;;;;;;;6.77;6.10;;;;;;;22.03;55.17;101521.69;5011791;28;20495;-47
2022/06/21 10:10:48;;;;;;;6.70;6.10;;;;;;;21.87;55.92;101522.53;5012263;28;20834;-46
2022/06/21 10:13:34;;;;;;;7.87;7.27;;;;;;;21.55;56.29;101524.28;5012251;28;20972;-47
2022/06/21 10:16:20;;;;;;;6.83;6.10;;;;;;;21.66;57.57;101530.66;5012230;28;20463;-48
2022/06/21 10:19:02;;;;;;;7.90;6.57;;;;;;;21.76;56.07;101533.50;5011652;28;21017;-42
2022/06/21 10:21:47;;;;;;;6.53;5.67;;;;;;;21.32;54.80;101533.44;5011868;28;21109;-48
2022/06/21 10:24:32;;;;;;;5.77;5.23;;;;;;;21.86;54.38;101530.94;5012304;28;20810;-42
2022/06/21 10:27:21;;;;;;;5.50;5.10;;;;;;;22.31;53.06;101539.66;5011978;28;21005;-42
2022/06/21 10:30:06;;;;;;;5.40;4.90;;;;;;;21.16;55.46;101536.16;5011961;28;20473;-42
2022/06/21 10:32:50;;;;;;;6.13;5.60;;;;;;;21.41;57.00;101536.56;5006959;28;20437;-44
2022/06/21 10:35:52;;;;;;;5.93;5.43;;;;;;;20.66;57.55;101538.81;5000627;28;20424;-44
2022/06/21 10:38:55;;;;;;;5.37;5.07;;;;;;;20.77;58.35;101546.03;5011470;28;21004;-43
2022/06/21 10:42:46;;;;;;;5.90;5.60;;;;;;;20.65;59.68;101546.09;5011695;28;20428;-43
2022/06/21 10:44:46;;;;;;;5.73;5.37;;;;;;;20.57;59.62;101538.38;5011787;28;20459;-45
2022/06/21 10:47:26;;;;;;;6.07;5.67;;;;;;;20.61;59.22;101547.66;5011185;28;20460;-47
2022/06/21 10:50:10;;;;;;;5.80;5.30;;;;;;;19.69;61.04;101557.66;5011535;28;20479;-42
2022/06/21 10:53:10;;;;;;;7.20;6.03;;;;;;;19.22;63.73;101548.72;5012623;28;20444;-44
2022/06/21 10:55:49;;;;;;;6.53;5.97;;;;;;;19.38;62.73;101551.78;5015698;28;20928;-48
2022/06/21 10:58:33;;;;;;;8.17;5.83;;;;;;;19.47;62.93;101553.09;5015321;28;20460;-45
2022/06/21 11:01:21;;;;;;;7.37;6.77;;;;;;;19.26;66.69;101549.06;5015587;28;20433;-43
2022/06/21 11:04:09;;;;;;;7.20;6.10;;;;;;;19.37;64.04;101536.59;5015507;28;20432;-45
2022/06/21 11:06:46;;;;;;;6.17;5.67;;;;;;;19.22;65.59;101539.78;5015737;28;20452;-47
2022/06/21 11:09:18;;;;;;;6.40;6.00;;;;;;;19.16;61.18;101538.00;5014951;28;20480;-47
2022/06/21 11:11:52;;;;;;;6.57;5.97;;;;;;;19.39;62.23;101520.94;5015278;28;20435;-46
2022/06/21 11:14:33;;;;;;;7.50;6.67;;;;;;;19.99;62.81;101519.59;5015493;28;20440;-45
2022/06/21 11:17:10;;;;;;;6.87;6.47;;;;;;;20.57;61.50;101515.88;5015264;28;20452;-46
2022/06/21 11:19:48;;;;;;;5.83;5.50;;;;;;;20.29;58.73;101508.56;5015392;28;20436;-45
2022/06/21 11:22:34;;;;;;;9.70;6.40;;;;;;;20.71;60.07;101515.31;5015103;28;20428;-42
2022/06/21 11:25:12;;;;;;;7.30;6.50;;;;;;;20.74;58.80;101522.13;5015301;28;20420;-43
2022/06/21 11:27:50;;;;;;;6.50;6.17;;;;;;;19.90;61.00;101534.56;5014795;28;20482;-42
2022/06/21 11:30:26;;;;;;;6.10;5.60;;;;;;;19.88;63.26;101523.16;5014877;28;20993;-44
2022/06/21 11:33:04;;;;;;;5.70;5.30;;;;;;;19.98;61.97;101528.78;5007412;28;20971;-45
2022/06/21 11:35:39;;;;;;;6.43;5.83;;;;;;;19.88;62.73;101529.41;5011113;28;20424;-44
2022/06/21 11:38:32;;;;;;;6.50;6.00;;;;;;;19.79;61.95;101530.84;5014510;28;20462;-45
2022/06/21 11:41:05;;;;;;;6.67;5.70;;;;;;;20.20;62.40;101528.94;5014915;28;20448;-47
2022/06/21 11:43:48;;;;;;;10.63;6.30;;;;;;;20.77;59.86;101527.06;5014941;28;20440;-43
2022/06/21 11:46:26;;;;;;;6.37;5.53;;;;;;;21.17;59.18;101527.78;5014856;28;20872;-48
2022/06/21 11:49:20;;;;;;;5.77;5.30;;;;;;;20.47;58.87;101524.63;5014238;28;20468;-45
2022/06/21 11:52:19;;;;;;;6.80;6.17;;;;;;;20.60;61.15;101512.69;5014553;28;20523;-43
2022/06/21 11:54:55;;;;;;;7.10;5.43;;;;;;;20.36;59.63;101515.50;5014910;28;20432;-44
2022/06/21 11:57:33;;;;;;;5.57;5.17;;;;;;;20.03;60.94;101526.19;5014062;28;20494;-48
2022/06/21 12:00:07;;;;;;;6.47;5.67;;;;;;;20.07;60.85;101521.13;5015010;28;20443;-47
2022/06/21 12:02:45;;;;;;;6.00;5.63;;;;;;;20.51;60.69;101509.56;5014238;28;20447;-42
2022/06/21 12:05:26;;;;;;;8.30;6.47;;;;;;;20.60;61.03;101516.22;5013255;28;20435;-44